Time;durP1;ratioP1;P1;durP2;ratioP2;P2;SDS_P1;SDS_P2;PMS_P1;PMS_P2;Temp;Humidity;BMP_temperature;BMP_pressure;BME280_temperature;BME280_humidity;BME280_pressure;Samples;Min_cycle;Max_cycle;Signal;HPM_P1;HPM_P2
2020/12/03 00:01:06;;;;;;;25.70;14.35;;;;;;;;;;5053843;28;20747;-44
2020/12/03 00:03:34;;;;;;;22.88;13.82;;;;;;;;;;5053703;28;20173;-44
2020/12/03 00:06:01;;;;;;;25.25;12.00;;;;;;;;;;5053769;28;20169;-45
2020/12/03 00:08:31;;;;;;;25.98;13.38;;;;;;;;;;5053759;28;20177;-46
2020/12/03 00:11:00;;;;;;;22.63;13.07;;;;;;;;;;5053561;28;20861;-46
2020/12/03 00:13:27;;;;;;;22.52;14.10;;;;;;;;;;5053481;28;20160;-45
2020/12/03 00:15:54;;;;;;;21.63;13.75;;;;;;;;;;5053556;28;20192;-46
2020/12/03 00:18:21;;;;;;;22.20;15.07;;;;;;;;;;5053662;28;20199;-47
2020/12/03 00:20:47;;;;;;;18.17;12.45;;;;;;;;;;5053305;28;20196;-45
2020/12/03 00:23:13;;;;;;;16.25;12.23;;;;;;;;;;5053303;28;20174;-44
2020/12/03 00:25:39;;;;;;;21.33;13.87;;;;;;;;;;5052617;28;20171;-44
2020/12/03 00:28:05;;;;;;;22.87;13.27;;;;;;;;;;5052780;28;20511;-44
2020/12/03 00:30:31;;;;;;;22.35;14.93;;;;;;;;;;5052969;28;20955;-47
2020/12/03 00:32:57;;;;;;;20.80;14.30;;;;;;;;;;5052959;28;20180;-47
2020/12/03 00:35:24;;;;;;;21.50;13.70;;;;;;;;;;5053256;28;20502;-44
2020/12/03 00:37:50;;;;;;;21.58;14.20;;;;;;;;;;5053102;28;20197;-45
2020/12/03 00:40:16;;;;;;;20.77;12.57;;;;;;;;;;5053013;28;20741;-44
2020/12/03 00:42:42;;;;;;;21.95;14.63;;;;;;;;;;5052808;28;20174;-45
2020/12/03 00:45:09;;;;;;;17.95;11.82;;;;;;;;;;5053015;28;20237;-45
2020/12/03 00:47:36;;;;;;;21.58;13.43;;;;;;;;;;5053131;28;20176;-45
2020/12/03 00:50:02;;;;;;;26.95;14.07;;;;;;;;;;5052828;28;20550;-47
2020/12/03 00:52:28;;;;;;;19.48;12.95;;;;;;;;;;5052713;28;20168;-45
2020/12/03 00:54:54;;;;;;;25.90;14.60;;;;;;;;;;5052715;28;20173;-47
2020/12/03 00:57:20;;;;;;;23.23;14.50;;;;;;;;;;5052253;28;20509;-45
2020/12/03 00:59:46;;;;;;;21.13;13.40;;;;;;;;;;5070996;28;20459;-46
2020/12/03 01:02:13;;;;;;;22.67;13.97;;;;;;;;;;5072482;28;20392;-46
2020/12/03 01:04:39;;;;;;;25.80;14.75;;;;;;;;;;5072564;28;20812;-45
2020/12/03 01:07:05;;;;;;;26.38;15.02;;;;;;;;;;5071783;28;20231;-45
2020/12/03 01:09:31;;;;;;;23.25;15.60;;;;;;;;;;5072407;28;20184;-44
2020/12/03 01:11:57;;;;;;;23.10;14.85;;;;;;;;;;5072397;28;20184;-45
2020/12/03 01:14:24;;;;;;;25.47;14.90;;;;;;;;;;5072409;28;20169;-45
2020/12/03 01:16:50;;;;;;;26.30;17.35;;;;;;;;;;5072258;28;20462;-46
2020/12/03 01:19:16;;;;;;;24.10;14.88;;;;;;;;;;5072372;28;20195;-45
2020/12/03 01:21:42;;;;;;;24.85;14.77;;;;;;;;;;5072191;28;20224;-44
2020/12/03 01:24:08;;;;;;;26.92;16.08;;;;;;;;;;5072258;28;20206;-45
2020/12/03 01:26:34;;;;;;;24.37;15.30;;;;;;;;;;5072155;28;20205;-45
2020/12/03 01:29:00;;;;;;;26.20;15.63;;;;;;;;;;5057056;28;20426;-44
2020/12/03 01:31:31;;;;;;;28.13;16.67;;;;;;;;;;5052064;28;20235;-44
2020/12/03 01:33:57;;;;;;;25.17;14.65;;;;;;;;;;5052203;28;20403;-47
2020/12/03 01:36:23;;;;;;;24.35;15.13;;;;;;;;;;5057409;28;20192;-47
2020/12/03 01:38:49;;;;;;;20.07;13.90;;;;;;;;;;5071686;28;20169;-45
2020/12/03 01:41:15;;;;;;;21.77;14.98;;;;;;;;;;5072110;28;20455;-44
2020/12/03 01:43:42;;;;;;;21.52;13.88;;;;;;;;;;5070675;28;20568;-45
2020/12/03 01:46:08;;;;;;;25.48;15.52;;;;;;;;;;5072206;28;20166;-44
2020/12/03 01:48:40;;;;;;;21.33;14.03;;;;;;;;;;5072094;28;20180;-45
2020/12/03 01:51:18;;;;;;;23.70;14.18;;;;;;;;;;5072070;28;20454;-45
2020/12/03 01:53:44;;;;;;;26.17;15.38;;;;;;;;;;5071792;28;20172;-45
2020/12/03 01:56:20;;;;;;;20.60;12.82;;;;;;;;;;5071895;28;20738;-44
2020/12/03 01:58:46;;;;;;;22.30;14.57;;;;;;;;;;5071765;28;20704;-45
2020/12/03 02:01:12;;;;;;;25.52;14.88;;;;;;;;;;5071257;28;20208;-46
2020/12/03 02:03:45;;;;;;;23.35;13.35;;;;;;;;;;5069032;28;20177;-45
2020/12/03 02:06:11;;;;;;;21.13;14.80;;;;;;;;;;5071113;28;20196;-45
2020/12/03 02:08:37;;;;;;;25.48;14.90;;;;;;;;;;5071256;28;20250;-45
2020/12/03 02:11:03;;;;;;;21.42;14.10;;;;;;;;;;5071331;28;20285;-44
2020/12/03 02:13:29;;;;;;;20.53;13.40;;;;;;;;;;5071241;28;20199;-45
2020/12/03 02:15:55;;;;;;;23.83;14.10;;;;;;;;;;5071114;28;20415;-44
2020/12/03 02:18:21;;;;;;;21.70;14.13;;;;;;;;;;5071169;28;20448;-45
2020/12/03 02:20:47;;;;;;;22.40;13.23;;;;;;;;;;5070908;28;20499;-46
2020/12/03 02:23:14;;;;;;;21.23;13.23;;;;;;;;;;5070945;28;20451;-47
2020/12/03 02:25:40;;;;;;;19.42;13.30;;;;;;;;;;5071254;28;20402;-46
2020/12/03 02:28:06;;;;;;;21.37;12.97;;;;;;;;;;5066456;28;20183;-47
2020/12/03 02:30:32;;;;;;;19.75;13.20;;;;;;;;;;5050755;28;20473;-46
2020/12/03 02:35:27;;;;;;;21.13;14.40;;;;;;;;;;5009281;28;20577;-51
2020/12/03 02:37:53;;;;;;;18.58;11.93;;;;;;;;;;5011242;28;20233;-52
2020/12/03 02:40:19;;;;;;;18.60;12.95;;;;;;;;;;5011279;28;20629;-52
2020/12/03 02:42:45;;;;;;;18.50;11.97;;;;;;;;;;5010970;28;20165;-51
2020/12/03 02:45:11;;;;;;;20.33;12.97;;;;;;;;;;5011225;28;20425;-51
2020/12/03 02:47:37;;;;;;;19.70;12.60;;;;;;;;;;5011096;28;20438;-50
2020/12/03 02:50:03;;;;;;;16.80;12.70;;;;;;;;;;5010435;28;20502;-52
2020/12/03 02:52:29;;;;;;;19.90;12.38;;;;;;;;;;5011036;28;20409;-51
2020/12/03 02:54:56;;;;;;;19.90;12.97;;;;;;;;;;5011308;28;20201;-50
2020/12/03 02:57:22;;;;;;;20.10;13.70;;;;;;;;;;5010982;28;20465;-52
2020/12/03 02:59:48;;;;;;;21.23;12.85;;;;;;;;;;5010220;28;20847;-51
2020/12/03 03:02:14;;;;;;;20.30;13.60;;;;;;;;;;5010712;28;20186;-51
2020/12/03 03:04:40;;;;;;;20.00;13.05;;;;;;;;;;5010705;28;20609;-51
2020/12/03 03:07:06;;;;;;;18.80;12.03;;;;;;;;;;5011065;28;20165;-50
2020/12/03 03:09:32;;;;;;;16.88;11.45;;;;;;;;;;5010863;28;20822;-50
2020/12/03 03:11:58;;;;;;;19.67;12.40;;;;;;;;;;5011136;28;20258;-50
2020/12/03 03:14:24;;;;;;;17.37;11.80;;;;;;;;;;5010641;28;20614;-52
2020/12/03 03:16:50;;;;;;;18.80;12.55;;;;;;;;;;5010806;28;20445;-50
2020/12/03 03:19:18;;;;;;;18.80;12.37;;;;;;;;;;5010750;28;20252;-51
2020/12/03 03:21:44;;;;;;;20.83;12.60;;;;;;;;;;5010841;28;20394;-51
2020/12/03 03:24:10;;;;;;;17.25;11.35;;;;;;;;;;5010781;28;20200;-51
2020/12/03 03:26:36;;;;;;;21.17;13.47;;;;;;;;;;5010774;28;20165;-50
2020/12/03 03:29:02;;;;;;;19.60;11.83;;;;;;;;;;5010044;28;20935;-52
2020/12/03 03:31:28;;;;;;;18.52;11.32;;;;;;;;;;5010594;28;20409;-51
2020/12/03 03:33:54;;;;;;;19.10;12.40;;;;;;;;;;5010449;28;20201;-50
2020/12/03 03:36:20;;;;;;;22.83;13.70;;;;;;;;;;5009933;28;20429;-51
2020/12/03 03:38:46;;;;;;;17.90;11.67;;;;;;;;;;5010777;28;20401;-50
2020/12/03 03:41:12;;;;;;;20.00;13.53;;;;;;;;;;5010542;28;20777;-50
2020/12/03 03:43:38;;;;;;;22.67;12.00;;;;;;;;;;5010620;28;20432;-50
2020/12/03 03:46:04;;;;;;;20.33;12.40;;;;;;;;;;5010646;28;20432;-50
2020/12/03 03:48:30;;;;;;;19.67;12.30;;;;;;;;;;5010766;28;20886;-50
2020/12/03 03:50:57;;;;;;;18.50;12.50;;;;;;;;;;5010674;28;20245;-51
2020/12/03 03:53:23;;;;;;;19.15;12.68;;;;;;;;;;5010353;28;20433;-52
2020/12/03 03:55:49;;;;;;;20.67;12.30;;;;;;;;;;5010744;28;20509;-51
2020/12/03 03:58:15;;;;;;;19.37;12.90;;;;;;;;;;5009411;28;20555;-52
2020/12/03 04:00:42;;;;;;;23.77;12.23;;;;;;;;;;5011312;28;20463;-50
2020/12/03 04:03:12;;;;;;;16.80;12.27;;;;;;;;;;5013851;28;20435;-51
2020/12/03 04:05:38;;;;;;;21.45;13.50;;;;;;;;;;5014262;28;20181;-52
2020/12/03 04:08:04;;;;;;;17.70;12.60;;;;;;;;;;5013117;28;20216;-51
2020/12/03 04:10:30;;;;;;;18.87;12.50;;;;;;;;;;5013832;28;20177;-50
2020/12/03 04:12:56;;;;;;;18.27;11.52;;;;;;;;;;5013525;28;20407;-51
2020/12/03 04:15:22;;;;;;;18.70;11.90;;;;;;;;;;5014126;28;20184;-51
2020/12/03 04:17:48;;;;;;;17.67;11.80;;;;;;;;;;5013824;28;20851;-51
2020/12/03 04:20:15;;;;;;;20.13;11.57;;;;;;;;;;5013687;28;20700;-52
2020/12/03 04:22:42;;;;;;;20.40;13.00;;;;;;;;;;5013708;28;20502;-51
2020/12/03 04:25:08;;;;;;;17.60;12.45;;;;;;;;;;5013543;28;20659;-51
2020/12/03 04:27:34;;;;;;;22.00;13.67;;;;;;;;;;5013753;28;20237;-50
2020/12/03 04:29:59;;;;;;;21.93;13.13;;;;;;;;;;5012730;28;20502;-51
2020/12/03 04:32:25;;;;;;;22.10;12.90;;;;;;;;;;5013535;28;20416;-51
2020/12/03 04:34:51;;;;;;;21.63;12.80;;;;;;;;;;5013235;28;20889;-50
2020/12/03 04:37:17;;;;;;;16.80;12.23;;;;;;;;;;5013496;28;20977;-52
2020/12/03 04:39:43;;;;;;;20.07;12.27;;;;;;;;;;5013932;28;20913;-50
2020/12/03 04:42:20;;;;;;;20.47;12.07;;;;;;;;;;5012968;28;20413;-50
2020/12/03 04:44:47;;;;;;;19.58;12.02;;;;;;;;;;5013760;28;20421;-51
2020/12/03 04:47:13;;;;;;;18.65;12.88;;;;;;;;;;5013189;28;20199;-50
2020/12/03 04:49:41;;;;;;;17.93;12.23;;;;;;;;;;5013344;28;20206;-50
2020/12/03 04:52:29;;;;;;;18.75;11.43;;;;;;;;;;5012969;28;20405;-51
2020/12/03 04:55:14;;;;;;;17.23;11.77;;;;;;;;;;5013119;28;20198;-50
2020/12/03 04:57:46;;;;;;;16.95;10.70;;;;;;;;;;5013082;28;20233;-50
2020/12/03 05:00:22;;;;;;;20.33;12.48;;;;;;;;;;5012139;28;20550;-50
2020/12/03 05:02:57;;;;;;;19.02;11.68;;;;;;;;;;5013215;28;20178;-50
2020/12/03 05:05:26;;;;;;;16.92;10.27;;;;;;;;;;5012956;28;20205;-50
2020/12/03 05:08:05;;;;;;;19.13;11.85;;;;;;;;;;5012782;28;20179;-50
2020/12/03 05:10:30;;;;;;;20.33;12.18;;;;;;;;;;5012877;28;20554;-51
2020/12/03 05:12:56;;;;;;;14.90;10.50;;;;;;;;;;5011820;28;20262;-51
2020/12/03 05:15:31;;;;;;;13.70;10.43;;;;;;;;;;5012763;28;20445;-50
2020/12/03 05:18:16;;;;;;;16.98;10.95;;;;;;;;;;5012753;28;20210;-51
2020/12/03 05:20:52;;;;;;;15.40;9.75;;;;;;;;;;5012603;28;20170;-52
2020/12/03 05:23:23;;;;;;;14.45;9.82;;;;;;;;;;5012253;28;20815;-52
2020/12/03 05:25:51;;;;;;;19.08;11.60;;;;;;;;;;5012518;28;20631;-52
2020/12/03 05:28:16;;;;;;;15.07;9.80;;;;;;;;;;5012544;28;20203;-51
2020/12/03 05:30:48;;;;;;;15.97;10.10;;;;;;;;;;5011475;28;20213;-50
2020/12/03 05:33:14;;;;;;;14.27;9.35;;;;;;;;;;5011533;28;20429;-50
2020/12/03 05:35:40;;;;;;;11.30;8.70;;;;;;;;;;5012227;28;20171;-51
2020/12/03 05:38:15;;;;;;;15.60;10.02;;;;;;;;;;5012342;28;20456;-51
2020/12/03 05:40:41;;;;;;;19.35;12.32;;;;;;;;;;5012183;28;20198;-51
2020/12/03 05:43:10;;;;;;;15.13;9.53;;;;;;;;;;5012481;28;20205;-50
2020/12/03 05:45:36;;;;;;;15.32;9.75;;;;;;;;;;5012339;28;20449;-52
2020/12/03 05:48:04;;;;;;;14.43;9.70;;;;;;;;;;5012507;28;20210;-51
2020/12/03 05:50:32;;;;;;;13.05;10.00;;;;;;;;;;5012278;28;20501;-51
2020/12/03 05:53:07;;;;;;;17.17;10.35;;;;;;;;;;5012009;28;20178;-51
2020/12/03 05:55:33;;;;;;;13.93;9.65;;;;;;;;;;5012214;28;20166;-50
2020/12/03 05:58:20;;;;;;;14.25;10.70;;;;;;;;;;5011844;28;20717;-50
2020/12/03 06:04:13;;;;;;;14.02;9.98;;;;;;;;;;5007964;28;20752;-50
2020/12/03 06:06:57;;;;;;;15.77;10.57;;;;;;;;;;5013434;28;20183;-51
2020/12/03 06:09:29;;;;;;;14.43;9.25;;;;;;;;;;5011961;28;20303;-51
2020/12/03 06:12:07;;;;;;;12.40;9.48;;;;;;;;;;5011906;28;20500;-52
2020/12/03 06:14:51;;;;;;;16.17;10.20;;;;;;;;;;5011579;28;20195;-52
2020/12/03 06:17:26;;;;;;;17.58;10.02;;;;;;;;;;5011448;28;20225;-51
2020/12/03 06:20:01;;;;;;;14.68;10.43;;;;;;;;;;5011668;28;20166;-52
2020/12/03 06:22:27;;;;;;;14.35;9.80;;;;;;;;;;5011386;28;20169;-51
2020/12/03 06:24:53;;;;;;;16.80;11.10;;;;;;;;;;5011276;28;20192;-51
2020/12/03 06:27:31;;;;;;;21.60;10.97;;;;;;;;;;5011520;28;20410;-50
2020/12/03 06:30:00;;;;;;;15.45;9.82;;;;;;;;;;5010138;28;20435;-51
2020/12/03 06:32:45;;;;;;;15.30;9.88;;;;;;;;;;5011266;28;20186;-50
2020/12/03 06:35:24;;;;;;;15.68;10.20;;;;;;;;;;5011530;28;20214;-51
2020/12/03 06:37:53;;;;;;;17.55;11.00;;;;;;;;;;5011372;28;20353;-51
2020/12/03 06:40:23;;;;;;;18.00;10.70;;;;;;;;;;5011130;28;20258;-51
2020/12/03 06:42:52;;;;;;;18.20;10.70;;;;;;;;;;5011117;28;20217;-50
2020/12/03 06:45:27;;;;;;;14.90;9.98;;;;;;;;;;5010099;28;20673;-51
2020/12/03 06:48:07;;;;;;;17.95;10.82;;;;;;;;;;5011097;28;20780;-50
2020/12/03 06:50:52;;;;;;;19.08;11.73;;;;;;;;;;5011042;28;20179;-52
2020/12/03 06:53:30;;;;;;;20.27;11.32;;;;;;;;;;5010761;28;20206;-50
2020/12/03 06:56:15;;;;;;;15.05;10.25;;;;;;;;;;5011042;28;20189;-52
2020/12/03 06:58:43;;;;;;;17.08;10.68;;;;;;;;;;5010994;28;20218;-51
2020/12/03 07:01:45;;;;;;;21.80;11.80;;;;;;;;;;5010958;28;20678;-52
2020/12/03 07:04:19;;;;;;;19.08;11.88;;;;;;;;;;4930688;29;20207;-51
2020/12/03 07:07:04;;;;;;;16.73;10.40;;;;;;;;;;4998885;28;20203;-52
2020/12/03 07:09:48;;;;;;;16.40;10.40;;;;;;;;;;5011353;28;20182;-51
2020/12/03 07:12:22;;;;;;;18.45;11.18;;;;;;;;;;5010607;28;20197;-50
2020/12/03 07:15:14;;;;;;;15.75;9.82;;;;;;;;;;5010879;28;20195;-50
2020/12/03 07:17:40;;;;;;;15.63;9.82;;;;;;;;;;5010585;28;20201;-50
2020/12/03 07:20:24;;;;;;;15.57;10.30;;;;;;;;;;5010810;28;20265;-52
2020/12/03 07:22:58;;;;;;;18.45;10.60;;;;;;;;;;5010541;28;20788;-51
2020/12/03 07:25:24;;;;;;;16.65;10.65;;;;;;;;;;5010608;28;20176;-50
2020/12/03 07:27:52;;;;;;;17.87;10.50;;;;;;;;;;5010922;28;20260;-51
2020/12/03 07:30:30;;;;;;;18.17;10.05;;;;;;;;;;5010187;28;20756;-53
2020/12/03 07:33:16;;;;;;;18.88;11.10;;;;;;;;;;5010460;28;20225;-52
2020/12/03 07:36:09;;;;;;;14.98;10.30;;;;;;;;;;5010313;28;20192;-52
2020/12/03 07:38:41;;;;;;;17.88;11.68;;;;;;;;;;5014562;28;20199;-50
2020/12/03 07:41:07;;;;;;;18.58;11.43;;;;;;;;;;5014656;28;20210;-51
2020/12/03 07:43:37;;;;;;;17.85;11.30;;;;;;;;;;5014414;28;20238;-50
2020/12/03 07:46:23;;;;;;;14.82;9.60;;;;;;;;;;5015204;28;20197;-51
2020/12/03 07:48:49;;;;;;;15.57;10.50;;;;;;;;;;5014632;28;20169;-51
2020/12/03 07:51:16;;;;;;;16.48;10.90;;;;;;;;;;5014463;28;20171;-52
2020/12/03 07:53:42;;;;;;;16.98;10.68;;;;;;;;;;5014328;28;20188;-50
2020/12/03 07:56:29;;;;;;;18.23;10.82;;;;;;;;;;5013466;28;20180;-51
2020/12/03 07:58:55;;;;;;;15.98;11.23;;;;;;;;;;5014445;28;20243;-51
2020/12/03 08:01:29;;;;;;;17.55;10.60;;;;;;;;;;5012848;28;20175;-51
2020/12/03 08:03:54;;;;;;;19.50;12.13;;;;;;;;;;5013685;28;20216;-51
2020/12/03 08:06:20;;;;;;;17.90;10.50;;;;;;;;;;5014170;28;20173;-51
2020/12/03 08:09:06;;;;;;;15.80;11.17;;;;;;;;;;5014220;28;20403;-52
2020/12/03 08:11:41;;;;;;;20.88;13.13;;;;;;;;;;5013619;28;20410;-50
2020/12/03 08:14:25;;;;;;;18.40;12.40;;;;;;;;;;5014024;28;20230;-51
2020/12/03 08:16:52;;;;;;;14.82;11.27;;;;;;;;;;5013962;28;20202;-52
2020/12/03 08:19:28;;;;;;;15.63;10.48;;;;;;;;;;5013983;28;20202;-50
2020/12/03 08:21:54;;;;;;;16.52;11.10;;;;;;;;;;5013596;28;20166;-51
2020/12/03 08:24:23;;;;;;;21.17;12.10;;;;;;;;;;5013702;28;20715;-52
2020/12/03 08:27:10;;;;;;;19.40;11.27;;;;;;;;;;5013738;28;20397;-52
2020/12/03 08:29:39;;;;;;;17.08;11.68;;;;;;;;;;5000214;28;20183;-51
2020/12/03 08:32:05;;;;;;;17.45;10.20;;;;;;;;;;5012357;28;20623;-50
2020/12/03 08:34:34;;;;;;;17.67;11.07;;;;;;;;;;5013858;28;20255;-51
2020/12/03 08:37:02;;;;;;;15.00;11.43;;;;;;;;;;5012604;28;20935;-51
2020/12/03 08:39:28;;;;;;;17.35;10.77;;;;;;;;;;5012350;28;20182;-52
2020/12/03 08:41:55;;;;;;;17.53;11.03;;;;;;;;;;5013293;28;20170;-51
2020/12/03 08:44:21;;;;;;;17.80;11.02;;;;;;;;;;5013372;28;20457;-52
2020/12/03 08:46:48;;;;;;;17.45;11.80;;;;;;;;;;5012665;28;20583;-51
2020/12/03 08:49:23;;;;;;;18.35;11.32;;;;;;;;;;5013208;28;20553;-51
2020/12/03 08:51:50;;;;;;;16.63;11.77;;;;;;;;;;5013257;28;20657;-52
2020/12/03 08:54:16;;;;;;;17.42;10.93;;;;;;;;;;5012962;28;20206;-51
2020/12/03 08:56:44;;;;;;;16.92;11.60;;;;;;;;;;5013240;28;20251;-52
2020/12/03 08:59:13;;;;;;;13.25;9.90;;;;;;;;;;5013029;28;20669;-52
2020/12/03 09:01:43;;;;;;;14.85;10.27;;;;;;;;;;5012207;28;20187;-51
2020/12/03 09:04:09;;;;;;;16.33;11.38;;;;;;;;;;5012859;28;20190;-51
2020/12/03 09:06:48;;;;;;;15.23;10.73;;;;;;;;;;5013042;28;20164;-52
2020/12/03 09:09:20;;;;;;;14.20;10.27;;;;;;;;;;5012966;28;20648;-51
2020/12/03 09:11:46;;;;;;;15.52;10.50;;;;;;;;;;5012750;28;20693;-52
2020/12/03 09:14:12;;;;;;;14.07;10.18;;;;;;;;;;5012631;28;20240;-50
2020/12/03 09:16:40;;;;;;;13.32;10.20;;;;;;;;;;5012892;28;20241;-52
2020/12/03 09:19:06;;;;;;;13.95;9.35;;;;;;;;;;5012712;28;20351;-51
2020/12/03 09:21:33;;;;;;;15.60;9.80;;;;;;;;;;5012735;28;20714;-52
2020/12/03 09:23:59;;;;;;;15.55;10.25;;;;;;;;;;5012517;28;20436;-51
2020/12/03 09:26:26;;;;;;;11.93;9.32;;;;;;;;;;5012603;28;20172;-51
2020/12/03 09:28:53;;;;;;;14.70;11.07;;;;;;;;;;5012681;28;20243;-51
2020/12/03 09:31:20;;;;;;;14.32;9.73;;;;;;;;;;5014162;28;20193;-51
2020/12/03 09:33:46;;;;;;;16.98;9.45;;;;;;;;;;5014144;28;20347;-51
2020/12/03 09:36:12;;;;;;;16.50;10.95;;;;;;;;;;5011084;28;20208;-51
2020/12/03 09:38:41;;;;;;;18.75;9.63;;;;;;;;;;5012042;28;20202;-51
2020/12/03 09:41:07;;;;;;;15.60;9.80;;;;;;;;;;5012276;28;20167;-51
2020/12/03 09:43:33;;;;;;;13.27;9.98;;;;;;;;;;5012117;28;20192;-51
2020/12/03 09:46:05;;;;;;;14.10;9.90;;;;;;;;;;5012335;28;20191;-52
2020/12/03 09:48:32;;;;;;;13.07;9.25;;;;;;;;;;5012163;28;20542;-51
2020/12/03 09:51:02;;;;;;;16.77;10.00;;;;;;;;;;5012208;28;20555;-52
2020/12/03 09:53:28;;;;;;;16.00;9.90;;;;;;;;;;5011743;28;20652;-52
2020/12/03 09:56:00;;;;;;;15.00;9.73;;;;;;;;;;5012140;28;20174;-51
2020/12/03 09:58:26;;;;;;;15.10;10.05;;;;;;;;;;5011696;28;20461;-51
2020/12/03 10:00:53;;;;;;;13.20;10.00;;;;;;;;;;5011899;28;20258;-51
2020/12/03 10:03:38;;;;;;;14.05;9.35;;;;;;;;;;5011159;28;20435;-52
2020/12/03 10:06:04;;;;;;;12.80;9.27;;;;;;;;;;5011941;28;20226;-51
2020/12/03 10:08:55;;;;;;;11.60;8.45;;;;;;;;;;5011933;28;20186;-51
2020/12/03 10:11:31;;;;;;;12.93;9.10;;;;;;;;;;5011929;28;20217;-52
2020/12/03 10:13:57;;;;;;;12.55;8.88;;;;;;;;;;5011512;28;20270;-51
2020/12/03 10:16:24;;;;;;;15.73;9.60;;;;;;;;;;5011659;28;20258;-51
2020/12/03 10:18:51;;;;;;;13.15;9.30;;;;;;;;;;5011554;28;21195;-51
2020/12/03 10:21:20;;;;;;;12.82;8.25;;;;;;;;;;5011544;28;20205;-51
2020/12/03 10:23:49;;;;;;;11.93;8.77;;;;;;;;;;5011424;28;20195;-51
2020/12/03 10:26:17;;;;;;;13.18;9.50;;;;;;;;;;5011531;28;20179;-51
2020/12/03 10:28:46;;;;;;;12.93;10.63;;;;;;;;;;5011486;28;20180;-51
2020/12/03 10:31:13;;;;;;;13.52;9.30;;;;;;;;;;5011303;28;20176;-51
2020/12/03 10:33:39;;;;;;;11.18;8.50;;;;;;;;;;5010347;28;20582;-52
2020/12/03 10:36:17;;;;;;;15.07;8.95;;;;;;;;;;5011358;28;20172;-51
2020/12/03 10:38:45;;;;;;;13.82;9.60;;;;;;;;;;5011428;28;20206;-51
2020/12/03 10:41:11;;;;;;;13.65;9.20;;;;;;;;;;5011263;28;20273;-51
2020/12/03 10:43:40;;;;;;;10.88;7.75;;;;;;;;;;5010836;28;20188;-51
2020/12/03 10:46:10;;;;;;;13.20;9.60;;;;;;;;;;5011505;28;20169;-51
2020/12/03 10:48:38;;;;;;;16.35;9.40;;;;;;;;;;5011175;28;20218;-51
2020/12/03 10:51:07;;;;;;;10.82;9.20;;;;;;;;;;5011198;28;20183;-51
2020/12/03 10:53:33;;;;;;;13.80;10.50;;;;;;;;;;5010838;28;20187;-51
2020/12/03 10:56:05;;;;;;;14.87;9.93;;;;;;;;;;5011134;28;20169;-50
2020/12/03 10:59:01;;;;;;;11.75;9.05;;;;;;;;;;5011161;28;20450;-52
2020/12/03 11:01:29;;;;;;;13.90;9.77;;;;;;;;;;5011232;28;20180;-51
2020/12/03 11:03:57;;;;;;;12.13;8.32;;;;;;;;;;5009899;28;20200;-52
2020/12/03 11:06:29;;;;;;;17.45;8.63;;;;;;;;;;5011038;28;20247;-52
2020/12/03 11:08:56;;;;;;;11.63;8.07;;;;;;;;;;5011105;28;20181;-51
2020/12/03 11:11:23;;;;;;;11.50;8.23;;;;;;;;;;5010428;28;20184;-51
2020/12/03 11:13:49;;;;;;;11.50;9.13;;;;;;;;;;5010956;28;20188;-50
2020/12/03 11:16:16;;;;;;;11.27;8.02;;;;;;;;;;5012152;28;20212;-51
2020/12/03 11:18:45;;;;;;;11.48;8.45;;;;;;;;;;5010647;28;20224;-52
2020/12/03 11:21:14;;;;;;;12.98;9.32;;;;;;;;;;5011026;28;20176;-52
2020/12/03 11:23:49;;;;;;;9.50;7.57;;;;;;;;;;5010644;28;20554;-52
2020/12/03 11:26:15;;;;;;;7.83;6.20;;;;;;;;;;5010695;28;20405;-52
2020/12/03 11:28:41;;;;;;;9.53;7.70;;;;;;;;;;5010774;28;20493;-52
2020/12/03 11:31:08;;;;;;;11.13;7.43;;;;;;;;;;5011080;28;20518;-51
2020/12/03 11:33:41;;;;;;;10.80;7.07;;;;;;;;;;5008591;28;20461;-49
2020/12/03 11:36:11;;;;;;;10.27;7.70;;;;;;;;;;5009664;28;20959;-51
2020/12/03 11:38:39;;;;;;;12.00;7.83;;;;;;;;;;5010214;28;20449;-49
2020/12/03 11:41:20;;;;;;;8.93;7.50;;;;;;;;;;5010679;28;20429;-49
2020/12/03 11:49:28;;;;;;;9.27;7.30;;;;;;;;;;4977222;28;20413;-50
2020/12/03 11:51:54;;;;;;;9.97;8.17;;;;;;;;;;5010457;28;20220;-50
2020/12/03 11:54:30;;;;;;;9.95;7.60;;;;;;;;;;5010201;28;20414;-51
2020/12/03 11:56:57;;;;;;;11.33;7.27;;;;;;;;;;5010902;28;20202;-49
2020/12/03 11:59:29;;;;;;;11.90;7.40;;;;;;;;;;5010383;28;20400;-50
2020/12/03 12:01:59;;;;;;;9.80;7.45;;;;;;;;;;5010372;28;20169;-50
2020/12/03 12:07:35;;;;;;;8.55;7.55;;;;;;;;;;5010504;28;20207;-49
2020/12/03 12:11:11;;;;;;;8.73;7.07;;;;;;;;;;5010578;28;20182;-51
2020/12/03 12:12:57;;;;;;;10.75;7.97;;;;;;;;;;5000896;28;20276;-50
2020/12/03 12:15:23;;;;;;;9.38;7.55;;;;;;;;;;5010438;28;20215;-50
2020/12/03 12:17:49;;;;;;;9.30;7.27;;;;;;;;;;5010151;28;20201;-50
2020/12/03 12:20:16;;;;;;;10.00;7.22;;;;;;;;;;5010409;28;20406;-50
2020/12/03 12:22:42;;;;;;;10.18;7.57;;;;;;;;;;5011219;28;20212;-50
2020/12/03 12:25:09;;;;;;;7.87;7.03;;;;;;;;;;5013771;28;20219;-52
2020/12/03 12:27:35;;;;;;;11.00;7.13;;;;;;;;;;5013552;28;20403;-49
2020/12/03 12:30:01;;;;;;;7.43;6.67;;;;;;;;;;5013129;28;20181;-51
2020/12/03 12:32:27;;;;;;;10.02;7.40;;;;;;;;;;5013468;28;20404;-50
2020/12/03 12:34:53;;;;;;;7.77;6.97;;;;;;;;;;5013777;28;20286;-49
2020/12/03 12:37:19;;;;;;;9.53;7.20;;;;;;;;;;5013646;28;20935;-50
2020/12/03 12:39:45;;;;;;;10.97;6.97;;;;;;;;;;5013345;28;20399;-49
2020/12/03 12:42:11;;;;;;;11.53;7.57;;;;;;;;;;5013164;28;20399;-49
2020/12/03 12:44:37;;;;;;;8.93;6.87;;;;;;;;;;5013389;28;20429;-50
2020/12/03 12:47:04;;;;;;;7.90;6.82;;;;;;;;;;5013408;28;20411;-49
2020/12/03 12:49:30;;;;;;;11.77;7.05;;;;;;;;;;5013332;28;20168;-49
2020/12/03 12:51:56;;;;;;;8.70;7.10;;;;;;;;;;5013122;28;20218;-49
2020/12/03 12:54:24;;;;;;;8.45;7.15;;;;;;;;;;5013130;28;20419;-49
2020/12/03 12:56:50;;;;;;;8.88;6.90;;;;;;;;;;5012952;28;20168;-49
2020/12/03 12:59:16;;;;;;;9.25;7.15;;;;;;;;;;5012251;28;20172;-49
2020/12/03 13:01:43;;;;;;;9.25;7.10;;;;;;;;;;5012951;28;20169;-50
2020/12/03 13:04:09;;;;;;;9.10;6.68;;;;;;;;;;5012754;28;20243;-51
2020/12/03 13:06:35;;;;;;;10.10;7.30;;;;;;;;;;5012913;28;20174;-49
2020/12/03 13:09:01;;;;;;;7.47;6.10;;;;;;;;;;5012991;28;20405;-50
2020/12/03 13:11:27;;;;;;;9.40;7.10;;;;;;;;;;5012595;28;21160;-49
2020/12/03 13:13:53;;;;;;;10.80;7.40;;;;;;;;;;5012612;28;20780;-49
2020/12/03 13:16:19;;;;;;;8.45;6.88;;;;;;;;;;5012823;28;20573;-49
2020/12/03 13:18:45;;;;;;;11.93;7.97;;;;;;;;;;5012565;28;20279;-51
2020/12/03 13:21:12;;;;;;;14.43;7.07;;;;;;;;;;5012672;28;20388;-49
2020/12/03 13:23:38;;;;;;;10.10;7.13;;;;;;;;;;5012283;28;20500;-49
2020/12/03 13:26:04;;;;;;;8.50;6.83;;;;;;;;;;5012622;28;20255;-49
2020/12/03 13:28:30;;;;;;;11.33;6.67;;;;;;;;;;5011536;28;20438;-49
2020/12/03 13:30:55;;;;;;;13.00;7.63;;;;;;;;;;5012466;28;20399;-50
2020/12/03 13:33:21;;;;;;;9.00;7.00;;;;;;;;;;5011302;28;20513;-50
2020/12/03 13:35:49;;;;;;;9.93;7.23;;;;;;;;;;5012495;28;20456;-52
2020/12/03 13:38:16;;;;;;;11.15;7.10;;;;;;;;;;5010372;28;20538;-51
2020/12/03 13:40:45;;;;;;;8.73;6.88;;;;;;;;;;5011101;28;20199;-50
2020/12/03 13:43:11;;;;;;;8.73;7.60;;;;;;;;;;5012076;28;20164;-49
2020/12/03 13:45:37;;;;;;;8.65;6.88;;;;;;;;;;5012117;28;20350;-49
2020/12/03 13:48:03;;;;;;;10.40;8.25;;;;;;;;;;5012329;28;20173;-50
2020/12/03 13:50:29;;;;;;;10.67;8.00;;;;;;;;;;5015910;28;20222;-49
2020/12/03 13:52:55;;;;;;;10.53;7.53;;;;;;;;;;5027774;28;20829;-50
2020/12/03 13:55:23;;;;;;;8.30;6.83;;;;;;;;;;5016084;28;20431;-50
2020/12/03 13:57:49;;;;;;;8.23;6.43;;;;;;;;;;5011244;28;20543;-50
2020/12/03 14:00:15;;;;;;;9.63;6.87;;;;;;;;;;5012349;28;20694;-50
2020/12/03 14:02:41;;;;;;;10.13;6.60;;;;;;;;;;5012052;28;20801;-52
2020/12/03 14:05:07;;;;;;;8.80;7.20;;;;;;;;;;5012161;28;20415;-52
2020/12/03 14:07:33;;;;;;;9.68;6.75;;;;;;;;;;5011924;28;20438;-52
2020/12/03 14:09:59;;;;;;;8.65;6.78;;;;;;;;;;5012325;28;20198;-52
2020/12/03 14:12:25;;;;;;;9.47;6.70;;;;;;;;;;5011683;28;20168;-52
2020/12/03 14:14:52;;;;;;;9.02;7.40;;;;;;;;;;5011873;28;20935;-51
2020/12/03 14:17:18;;;;;;;9.43;7.75;;;;;;;;;;5011730;28;20566;-51
2020/12/03 14:19:44;;;;;;;8.70;7.13;;;;;;;;;;5010179;28;20176;-51
2020/12/03 14:22:10;;;;;;;9.73;7.13;;;;;;;;;;5011179;28;20410;-51
2020/12/03 14:24:36;;;;;;;9.10;7.63;;;;;;;;;;5011459;28;20680;-51
2020/12/03 14:27:03;;;;;;;11.27;7.45;;;;;;;;;;5011559;28;20226;-51
2020/12/03 14:29:29;;;;;;;8.57;7.10;;;;;;;;;;5012840;28;20670;-52
2020/12/03 14:31:55;;;;;;;10.13;7.73;;;;;;;;;;5011250;28;20247;-50
2020/12/03 14:34:21;;;;;;;10.98;8.05;;;;;;;;;;5010918;28;20439;-51
2020/12/03 14:36:47;;;;;;;9.75;8.70;;;;;;;;;;5017577;28;20176;-51
2020/12/03 14:39:14;;;;;;;8.68;7.32;;;;;;;;;;5028348;28;20185;-51
2020/12/03 14:41:40;;;;;;;12.00;7.80;;;;;;;;;;5031024;28;20168;-51
2020/12/03 14:44:06;;;;;;;9.75;8.57;;;;;;;;;;5025501;28;20200;-51
2020/12/03 14:46:33;;;;;;;8.93;8.02;;;;;;;;;;5023972;28;20183;-51
2020/12/03 14:48:59;;;;;;;13.07;8.52;;;;;;;;;;5030960;28;20654;-51